createdAt,value
2023-01-13T00:00:05.998Z,949.46
2023-01-13T00:01:08.933Z,949.43
2023-01-13T00:02:10.956Z,949.47
2023-01-13T00:03:12.925Z,949.37
2023-01-13T00:04:14.926Z,949.41
2023-01-13T00:05:16.925Z,949.41
2023-01-13T00:06:18.958Z,949.4
2023-01-13T00:07:20.927Z,949.42
2023-01-13T00:08:22.921Z,949.42
2023-01-13T00:09:24.928Z,949.37
2023-01-13T00:10:26.983Z,949.38
2023-01-13T00:11:28.972Z,949.37
2023-01-13T00:12:30.936Z,949.38
2023-01-13T00:13:32.933Z,949.37
2023-01-13T00:14:34.937Z,949.31
2023-01-13T00:15:36.967Z,949.35
2023-01-13T00:16:39.004Z,949.35
2023-01-13T00:17:40.948Z,949.34
2023-01-13T00:18:42.943Z,949.34
2023-01-13T00:19:44.928Z,949.39
2023-01-13T00:20:46.938Z,949.42
2023-01-13T00:21:48.989Z,949.39
2023-01-13T00:22:52.942Z,949.32
2023-01-13T00:23:54.963Z,949.37
2023-01-13T00:24:57.941Z,949.34
2023-01-13T00:26:00.004Z,949.31
2023-01-13T00:27:01.962Z,949.32
2023-01-13T00:28:03.959Z,949.33
2023-01-13T00:29:05.953Z,949.35
2023-01-13T00:30:07.953Z,949.25
2023-01-13T00:31:09.981Z,949.3
2023-01-13T00:32:11.991Z,949.3
2023-01-13T00:33:13.946Z,949.3
2023-01-13T00:34:15.953Z,949.31
2023-01-13T00:35:17.951Z,949.23
2023-01-13T00:36:19.949Z,949.3
2023-01-13T00:37:21.969Z,949.28
2023-01-13T00:38:23.952Z,949.27
2023-01-13T00:39:25.948Z,949.28
2023-01-13T00:40:27.952Z,949.28
2023-01-13T00:41:29.958Z,949.3
2023-01-13T00:42:31.966Z,949.21
2023-01-13T00:43:33.955Z,949.2
2023-01-13T00:44:35.954Z,949.3
2023-01-13T00:45:37.984Z,949.29
2023-01-13T00:46:40.011Z,949.15
2023-01-13T00:47:42.014Z,949.23
2023-01-13T00:48:43.949Z,949.2
2023-01-13T00:49:45.966Z,949.24
2023-01-13T00:50:48.970Z,949.21
2023-01-13T00:51:51.969Z,949.13
2023-01-13T00:52:53.977Z,949.16
2023-01-13T00:53:55.972Z,949.23
2023-01-13T00:54:58.964Z,949.17
2023-01-13T00:56:02.016Z,949.21
2023-01-13T00:57:03.955Z,949.11
2023-01-13T00:58:05.983Z,949.19
2023-01-13T00:59:08.009Z,949.13
2023-01-13T01:00:09.972Z,949.14
2023-01-13T01:01:12.158Z,949.12
2023-01-13T01:02:14.108Z,949.19
2023-01-13T01:03:15.972Z,949.16
2023-01-13T01:04:17.978Z,949.2
2023-01-13T01:05:20.000Z,949.11
2023-01-13T01:06:21.987Z,949.12
2023-01-13T01:07:23.969Z,949.12
2023-01-13T01:08:25.987Z,949.12
2023-01-13T01:09:27.972Z,949.16
2023-01-13T01:10:42.197Z,949.19
2023-01-13T01:11:31.965Z,949.19
2023-01-13T01:12:33.972Z,949.06
2023-01-13T01:13:35.984Z,949.12
2023-01-13T01:14:37.972Z,949.11
2023-01-13T01:15:40.012Z,949.12
2023-01-13T01:16:41.985Z,949.15
2023-01-13T01:17:44.011Z,949.12
2023-01-13T01:18:45.987Z,949.16
2023-01-13T01:19:48.994Z,949.12
2023-01-13T01:20:52.025Z,949.14
2023-01-13T01:21:53.995Z,949.11
2023-01-13T01:22:55.991Z,949.14
2023-01-13T01:23:57.995Z,949.14
2023-01-13T01:25:00.005Z,949.13
2023-01-13T01:26:02.007Z,949.16
2023-01-13T01:27:03.999Z,949.18
2023-01-13T01:28:05.989Z,949.22
2023-01-13T01:29:07.989Z,949.08
2023-01-13T01:30:11.020Z,949.23
2023-01-13T01:31:13.053Z,949.16
2023-01-13T01:32:15.987Z,949.2
2023-01-13T01:33:18.085Z,949.19
2023-01-13T01:34:20.012Z,949.21
2023-01-13T01:35:22.043Z,949.24
2023-01-13T01:36:23.989Z,949.16
2023-01-13T01:37:25.990Z,949.21
2023-01-13T01:38:27.985Z,949.18
2023-01-13T01:39:29.993Z,949.19
2023-01-13T01:40:32.038Z,949.16
2023-01-13T01:41:34.039Z,949.17
2023-01-13T01:42:36.002Z,949.17
2023-01-13T01:43:39.003Z,949.14
2023-01-13T01:44:40.998Z,949.13
2023-01-13T01:45:43.018Z,949.13
2023-01-13T01:46:45.085Z,949.09
2023-01-13T01:47:46.995Z,949.12
2023-01-13T01:48:49.028Z,949.11
2023-01-13T01:49:52.011Z,949.03
2023-01-13T01:50:54.017Z,949.06
2023-01-13T01:51:56.039Z,949.03
2023-01-13T01:52:58.044Z,949.12
2023-01-13T01:54:00.010Z,949.04
2023-01-13T01:55:02.003Z,949.04
2023-01-13T01:56:04.029Z,949.07
2023-01-13T01:57:06.002Z,949.04
2023-01-13T01:58:08.026Z,949.05
2023-01-13T01:59:10.010Z,949.03
2023-01-13T02:00:12.042Z,949
2023-01-13T02:01:14.105Z,949.02
2023-01-13T02:02:17.079Z,948.96
2023-01-13T02:03:19.034Z,948.99
2023-01-13T02:04:21.019Z,949.02
2023-01-13T02:05:23.008Z,949.03
2023-01-13T02:06:25.032Z,948.97
2023-01-13T02:07:27.021Z,949.01
2023-01-13T02:08:29.006Z,949
2023-01-13T02:09:31.017Z,948.98
2023-01-13T02:10:33.012Z,948.96
2023-01-13T02:11:35.012Z,948.99
2023-01-13T02:12:37.025Z,949
2023-01-13T02:13:39.014Z,949
2023-01-13T02:14:41.061Z,948.94
2023-01-13T02:15:43.024Z,948.99
2023-01-13T02:16:45.070Z,948.95
2023-01-13T02:17:47.052Z,948.97
2023-01-13T02:18:49.052Z,948.99
2023-01-13T02:19:53.040Z,948.94
2023-01-13T02:20:55.033Z,948.97
2023-01-13T02:21:57.029Z,948.88
2023-01-13T02:22:59.069Z,948.85
2023-01-13T02:24:01.231Z,948.79
2023-01-13T02:25:03.034Z,948.85
2023-01-13T02:26:05.105Z,948.9
2023-01-13T02:27:07.065Z,948.87
2023-01-13T02:28:09.066Z,948.8
2023-01-13T02:29:11.023Z,948.82
2023-01-13T02:30:13.020Z,948.81
2023-01-13T02:31:15.119Z,948.71
2023-01-13T02:32:18.031Z,948.79
2023-01-13T02:33:20.129Z,948.72
2023-01-13T02:34:22.025Z,948.74
2023-01-13T02:35:24.030Z,948.76
2023-01-13T02:36:26.030Z,948.75
2023-01-13T02:37:28.026Z,948.8
2023-01-13T02:38:30.057Z,948.7
2023-01-13T02:39:32.050Z,948.73
2023-01-13T02:41:36.035Z,948.69
2023-01-13T02:42:38.035Z,948.74
2023-01-13T02:43:40.070Z,948.72
2023-01-13T02:44:42.045Z,948.7
2023-01-13T02:45:44.105Z,948.72
2023-01-13T02:46:46.088Z,948.73
2023-01-13T02:47:49.059Z,948.67
2023-01-13T02:48:52.040Z,948.65
2023-01-13T02:49:54.037Z,948.68
2023-01-13T02:50:56.080Z,948.67
2023-01-13T02:51:58.055Z,948.67
2023-01-13T02:53:00.049Z,948.73
2023-01-13T02:54:02.060Z,948.66
2023-01-13T02:55:04.051Z,948.65
2023-01-13T02:56:06.139Z,948.68
2023-01-13T02:57:08.042Z,948.7
2023-01-13T02:58:10.045Z,948.67
2023-01-13T02:59:12.065Z,948.65
2023-01-13T03:00:14.031Z,948.7
2023-01-13T03:01:16.207Z,948.63
2023-01-13T03:02:18.236Z,948.62
2023-01-13T03:03:20.031Z,948.62
2023-01-13T03:04:22.061Z,948.59
2023-01-13T03:05:24.026Z,948.63
2023-01-13T03:06:26.069Z,948.61
2023-01-13T03:07:28.029Z,948.55
2023-01-13T03:08:30.030Z,948.58
2023-01-13T03:09:32.046Z,948.59
2023-01-13T03:10:34.044Z,948.55
2023-01-13T03:11:36.052Z,948.54
2023-01-13T03:12:38.056Z,948.51
2023-01-13T03:13:40.035Z,948.57
2023-01-13T03:14:42.046Z,948.53
2023-01-13T03:15:44.042Z,948.55
2023-01-13T03:16:46.181Z,948.55
2023-01-13T03:17:49.071Z,948.56
2023-01-13T03:18:52.041Z,948.53
2023-01-13T03:19:54.041Z,948.53
2023-01-13T03:20:56.086Z,948.52
2023-01-13T03:21:58.057Z,948.53
2023-01-13T03:23:00.053Z,948.5
2023-01-13T03:24:02.075Z,948.48
2023-01-13T03:25:04.041Z,948.49
2023-01-13T03:26:06.097Z,948.53
2023-01-13T03:27:08.044Z,948.56
2023-01-13T03:28:10.061Z,948.52
2023-01-13T03:29:12.039Z,948.53
2023-01-13T03:30:14.051Z,948.55
2023-01-13T03:31:16.043Z,948.49
2023-01-13T03:32:18.059Z,948.48
2023-01-13T03:33:20.073Z,948.47
2023-01-13T03:34:22.068Z,948.51
2023-01-13T03:35:24.086Z,948.45
2023-01-13T03:36:26.082Z,948.43
2023-01-13T03:37:28.054Z,948.5
2023-01-13T03:38:31.069Z,948.44
2023-01-13T03:39:33.073Z,948.42
2023-01-13T03:40:35.068Z,948.37
2023-01-13T03:41:37.063Z,948.35
2023-01-13T03:42:39.064Z,948.41
2023-01-13T03:43:41.084Z,948.43
2023-01-13T03:44:43.058Z,948.4
2023-01-13T03:45:45.107Z,948.41
2023-01-13T03:46:47.066Z,948.43
2023-01-13T03:47:49.077Z,948.33
2023-01-13T03:48:53.056Z,948.37
2023-01-13T03:49:55.064Z,948.4
2023-01-13T03:50:57.062Z,948.36
2023-01-13T03:51:59.096Z,948.35
2023-01-13T03:53:01.215Z,948.35
2023-01-13T03:54:03.070Z,948.35
2023-01-13T03:55:05.083Z,948.37
2023-01-13T03:56:07.073Z,948.34
2023-01-13T03:57:09.070Z,948.36
2023-01-13T03:58:11.134Z,948.39
2023-01-13T03:59:13.079Z,948.39
2023-01-13T04:00:16.101Z,948.36
2023-01-13T04:01:18.199Z,948.36
2023-01-13T04:02:20.144Z,948.32
2023-01-13T04:03:22.211Z,948.35
2023-01-13T04:04:24.078Z,948.38
2023-01-13T04:05:26.120Z,948.33
2023-01-13T04:06:28.074Z,948.36
2023-01-13T04:07:30.088Z,948.34
2023-01-13T04:08:32.104Z,948.33
2023-01-13T04:09:34.091Z,948.33
2023-01-13T04:10:36.095Z,948.28
2023-01-13T04:11:38.097Z,948.28
2023-01-13T04:12:40.079Z,948.33
2023-01-13T04:13:43.097Z,948.32
2023-01-13T04:15:47.195Z,948.39
2023-01-13T04:16:49.111Z,948.31
2023-01-13T04:17:52.113Z,948.33
2023-01-13T04:18:54.082Z,948.3
2023-01-13T04:19:56.085Z,948.31
2023-01-13T04:20:59.127Z,948.3
2023-01-13T04:22:02.088Z,948.3
2023-01-13T04:23:04.089Z,948.3
2023-01-13T04:24:06.092Z,948.34
2023-01-13T04:25:08.097Z,948.32
2023-01-13T04:26:10.153Z,948.31
2023-01-13T04:27:12.087Z,948.35
2023-01-13T04:28:14.099Z,948.36
2023-01-13T04:29:16.108Z,948.35
2023-01-13T04:30:18.088Z,948.36
2023-01-13T04:31:20.185Z,948.41
2023-01-13T04:32:22.104Z,948.42
2023-01-13T04:33:24.092Z,948.4
2023-01-13T04:34:28.275Z,948.41
2023-01-13T04:35:28.108Z,948.4
2023-01-13T04:36:30.263Z,948.38
2023-01-13T04:37:32.112Z,948.41
2023-01-13T04:38:34.110Z,948.4
2023-01-13T04:39:37.092Z,948.38
2023-01-13T04:40:39.109Z,948.37
2023-01-13T04:41:41.151Z,948.36
2023-01-13T04:42:43.100Z,948.37
2023-01-13T04:43:45.110Z,948.28
2023-01-13T04:44:47.125Z,948.3
2023-01-13T04:45:49.134Z,948.32
2023-01-13T04:46:52.138Z,948.31
2023-01-13T04:47:54.109Z,948.34
2023-01-13T04:48:56.111Z,948.31
2023-01-13T04:49:58.109Z,948.33
2023-01-13T04:51:00.117Z,948.3
2023-01-13T04:52:02.188Z,948.31
2023-01-13T04:53:04.109Z,948.3
2023-01-13T04:54:06.111Z,948.28
2023-01-13T04:55:08.158Z,948.24
2023-01-13T04:56:10.249Z,948.21
2023-01-13T04:57:12.113Z,948.25
2023-01-13T04:58:14.110Z,948.25
2023-01-13T04:59:16.123Z,948.25
2023-01-13T05:00:18.114Z,948.27
2023-01-13T05:01:20.327Z,948.31
2023-01-13T05:02:22.255Z,948.3
2023-01-13T05:03:24.120Z,948.32
2023-01-13T05:04:26.179Z,948.26
2023-01-13T05:05:28.134Z,948.28
2023-01-13T05:06:30.155Z,948.32
2023-01-13T05:07:32.120Z,948.29
2023-01-13T05:08:34.112Z,948.32
2023-01-13T05:09:36.124Z,948.34
2023-01-13T05:10:38.146Z,948.33
2023-01-13T05:11:41.119Z,948.34
2023-01-13T05:12:43.122Z,948.34
2023-01-13T05:13:45.149Z,948.27
2023-01-13T05:14:47.161Z,948.27
2023-01-13T05:15:49.204Z,948.27
2023-01-13T05:16:53.167Z,948.29
2023-01-13T05:17:55.163Z,948.22
2023-01-13T05:18:57.189Z,948.29
2023-01-13T05:19:59.157Z,948.31
2023-01-13T05:21:01.206Z,948.32
2023-01-13T05:23:05.167Z,948.29
2023-01-13T05:24:07.168Z,948.22
2023-01-13T05:25:09.235Z,948.24
2023-01-13T05:26:11.198Z,948.23
2023-01-13T05:27:13.210Z,948.24
2023-01-13T05:28:15.179Z,948.2
2023-01-13T05:29:17.173Z,948.21
2023-01-13T05:30:19.167Z,948.24
2023-01-13T05:31:21.274Z,948.21
2023-01-13T05:32:23.179Z,948.27
2023-01-13T05:33:25.172Z,948.13
2023-01-13T05:34:27.175Z,948.18
2023-01-13T05:35:29.177Z,948.22
2023-01-13T05:36:31.201Z,948.23
2023-01-13T05:37:33.189Z,948.25
2023-01-13T05:38:45.534Z,948.22
2023-01-13T05:39:45.531Z,948.26
2023-01-13T05:40:45.545Z,948.32
2023-01-13T05:41:45.548Z,948.3
2023-01-13T05:42:45.538Z,948.29
2023-01-13T05:43:46.196Z,948.32
2023-01-13T05:44:49.202Z,948.34
2023-01-13T05:45:52.201Z,948.38
2023-01-13T05:46:54.284Z,948.38
2023-01-13T05:47:56.190Z,948.35
2023-01-13T05:48:58.180Z,948.41
2023-01-13T05:50:01.183Z,948.42
2023-01-13T05:51:03.219Z,948.39
2023-01-13T05:52:05.239Z,948.43
2023-01-13T05:53:07.185Z,948.44
2023-01-13T05:54:09.192Z,948.43
2023-01-13T05:55:11.196Z,948.4
2023-01-13T05:56:13.240Z,948.43
2023-01-13T05:57:15.206Z,948.42
2023-01-13T05:58:17.194Z,948.41
2023-01-13T05:59:19.184Z,948.39
2023-01-13T06:00:22.182Z,948.39
2023-01-13T06:01:24.239Z,948.38
2023-01-13T06:02:26.226Z,948.4
2023-01-13T06:03:28.192Z,948.4
2023-01-13T06:04:30.262Z,948.44
2023-01-13T06:05:32.200Z,948.42
2023-01-13T06:06:34.205Z,948.4
2023-01-13T06:07:36.258Z,948.34
2023-01-13T06:08:39.920Z,948.4
2023-01-13T06:09:40.201Z,948.39
2023-01-13T06:10:42.210Z,948.41
2023-01-13T06:11:44.211Z,948.41
2023-01-13T06:12:46.204Z,948.4
2023-01-13T06:13:50.202Z,948.41
2023-01-13T06:14:52.192Z,948.35
2023-01-13T06:15:54.191Z,948.36
2023-01-13T06:16:56.195Z,948.34
2023-01-13T06:17:58.201Z,948.35
2023-01-13T06:19:01.187Z,948.34
2023-01-13T06:20:02.205Z,948.29
2023-01-13T06:21:04.209Z,948.28
2023-01-13T06:22:06.205Z,948.27
2023-01-13T06:23:08.241Z,948.31
2023-01-13T06:24:10.204Z,948.3
2023-01-13T06:25:12.257Z,948.32
2023-01-13T06:26:14.198Z,948.37
2023-01-13T06:27:16.208Z,948.4
2023-01-13T06:28:18.210Z,948.35
2023-01-13T06:29:20.203Z,948.38
2023-01-13T06:30:22.218Z,948.37
2023-01-13T06:31:24.272Z,948.33
2023-01-13T06:32:27.212Z,948.35
2023-01-13T06:34:31.216Z,948.35
2023-01-13T06:35:33.228Z,948.38
2023-01-13T06:36:35.209Z,948.38
2023-01-13T06:37:37.218Z,948.33
2023-01-13T06:38:39.233Z,948.32
2023-01-13T06:39:41.217Z,948.38
2023-01-13T06:40:43.419Z,948.39
2023-01-13T06:41:45.230Z,948.39
2023-01-13T06:42:47.226Z,948.4
2023-01-13T06:43:49.225Z,948.36
2023-01-13T06:44:53.227Z,948.33
2023-01-13T06:45:55.416Z,948.43
2023-01-13T06:46:57.334Z,948.35
2023-01-13T06:47:59.224Z,948.36
2023-01-13T06:49:01.247Z,948.33
2023-01-13T06:50:03.218Z,948.37
2023-01-13T06:51:05.268Z,948.4
2023-01-13T06:52:07.242Z,948.4
2023-01-13T06:53:09.229Z,948.37
2023-01-13T06:54:45.615Z,948.4
2023-01-13T06:58:45.599Z,948.43
2023-01-13T06:59:45.587Z,948.46
2023-01-13T07:00:45.629Z,948.42
2023-01-13T07:01:45.791Z,948.45
2023-01-13T07:02:45.707Z,948.42
2023-01-13T07:03:45.592Z,948.41
2023-01-13T07:04:45.601Z,948.38
2023-01-13T07:05:45.597Z,948.45
2023-01-13T07:06:45.592Z,948.45
2023-01-13T07:07:45.796Z,948.42
2023-01-13T07:08:45.595Z,948.42
2023-01-13T07:09:45.609Z,948.4
2023-01-13T07:10:45.607Z,948.44
2023-01-13T07:11:46.241Z,948.43
2023-01-13T07:12:49.276Z,948.45
2023-01-13T07:13:52.243Z,948.38
2023-01-13T07:14:54.256Z,948.45
2023-01-13T07:15:56.248Z,948.48
2023-01-13T07:16:58.245Z,948.47
2023-01-13T07:18:01.161Z,948.49
2023-01-13T07:19:02.256Z,948.48
2023-01-13T07:20:04.262Z,948.43
2023-01-13T07:21:06.262Z,948.44
2023-01-13T07:22:08.242Z,948.44
2023-01-13T07:23:10.233Z,948.47
2023-01-13T07:24:12.251Z,948.48
2023-01-13T07:25:14.279Z,948.43
2023-01-13T07:26:16.294Z,948.43
2023-01-13T07:27:18.260Z,948.46
2023-01-13T07:28:21.273Z,948.49
2023-01-13T07:29:23.267Z,948.49
2023-01-13T07:30:26.271Z,948.49
2023-01-13T07:31:28.292Z,948.52
2023-01-13T07:32:30.245Z,948.49
2023-01-13T07:33:32.250Z,948.5
2023-01-13T07:34:34.255Z,948.47
2023-01-13T07:35:36.250Z,948.51
2023-01-13T07:36:38.274Z,948.51
2023-01-13T07:37:40.330Z,948.49
2023-01-13T07:38:42.258Z,948.43
2023-01-13T07:39:44.257Z,948.44
2023-01-13T07:40:46.288Z,948.43
2023-01-13T07:41:49.310Z,948.43
2023-01-13T07:42:52.273Z,948.41
2023-01-13T07:43:54.258Z,948.39
2023-01-13T07:44:56.263Z,948.44
2023-01-13T07:45:58.284Z,948.37
2023-01-13T07:47:01.267Z,948.39
2023-01-13T07:49:04.266Z,948.39
2023-01-13T07:50:06.272Z,948.4
2023-01-13T07:51:08.270Z,948.37
2023-01-13T07:52:11.312Z,948.4
2023-01-13T07:53:13.272Z,948.39
2023-01-13T07:54:15.276Z,948.42
2023-01-13T07:55:17.317Z,948.43
2023-01-13T07:56:19.273Z,948.41
2023-01-13T07:57:21.299Z,948.41
2023-01-13T07:58:23.274Z,948.41
2023-01-13T07:59:25.272Z,948.4
2023-01-13T08:00:27.336Z,948.38
2023-01-13T08:01:29.376Z,948.41
2023-01-13T08:02:31.442Z,948.44
2023-01-13T08:03:33.272Z,948.42
2023-01-13T08:04:35.275Z,948.43
2023-01-13T08:05:37.284Z,948.46
2023-01-13T08:06:39.279Z,948.45
2023-01-13T08:07:41.336Z,948.43
2023-01-13T08:08:43.296Z,948.45
2023-01-13T08:09:45.281Z,948.46
2023-01-13T08:10:47.310Z,948.44
2023-01-13T08:12:56.342Z,948.42
2023-01-13T08:13:54.283Z,948.44
2023-01-13T08:14:56.283Z,948.45
2023-01-13T08:15:58.291Z,948.42
2023-01-13T08:17:01.163Z,948.43
2023-01-13T08:18:02.328Z,948.43
2023-01-13T08:19:04.287Z,948.47
2023-01-13T08:20:06.287Z,948.42
2023-01-13T08:21:08.277Z,948.38
2023-01-13T08:22:10.292Z,948.44
2023-01-13T08:23:12.318Z,948.47
2023-01-13T08:24:14.308Z,948.45
2023-01-13T08:25:16.296Z,948.5
2023-01-13T08:26:18.490Z,948.51
2023-01-13T08:27:20.295Z,948.4
2023-01-13T08:28:22.337Z,948.38
2023-01-13T08:29:24.362Z,948.35
2023-01-13T08:30:26.458Z,948.37
2023-01-13T08:31:28.306Z,948.39
2023-01-13T08:32:30.288Z,948.38
2023-01-13T08:33:32.326Z,948.45
2023-01-13T08:34:34.307Z,948.45
2023-01-13T08:35:36.299Z,948.39
2023-01-13T08:36:38.305Z,948.48
2023-01-13T08:37:41.316Z,948.44
2023-01-13T08:38:43.320Z,948.49
2023-01-13T08:39:46.312Z,948.45
2023-01-13T08:41:52.336Z,948.48
2023-01-13T08:42:54.309Z,948.51
2023-01-13T08:43:56.310Z,948.49
2023-01-13T08:44:58.301Z,948.55
2023-01-13T08:46:01.267Z,948.51
2023-01-13T08:47:02.299Z,948.52
2023-01-13T08:48:04.302Z,948.51
2023-01-13T08:49:06.315Z,948.51
2023-01-13T08:50:09.307Z,948.55
2023-01-13T08:51:11.412Z,948.47
2023-01-13T08:52:13.308Z,948.51
2023-01-13T08:53:15.307Z,948.54
2023-01-13T08:54:17.298Z,948.52
2023-01-13T08:55:19.361Z,948.52
2023-01-13T08:56:21.307Z,948.5
2023-01-13T08:57:23.462Z,948.48
2023-01-13T08:58:25.409Z,948.45
2023-01-13T08:59:28.299Z,948.44
2023-01-13T09:00:30.360Z,948.47
2023-01-13T09:01:32.477Z,948.45
2023-01-13T09:02:34.356Z,948.46
2023-01-13T09:03:36.311Z,948.43
2023-01-13T09:04:38.492Z,948.49
2023-01-13T09:05:40.356Z,948.5
2023-01-13T09:06:42.340Z,948.51
2023-01-13T09:07:44.365Z,948.5
2023-01-13T09:08:46.328Z,948.52
2023-01-13T09:09:49.341Z,948.48
2023-01-13T09:10:52.355Z,948.53
2023-01-13T09:11:54.330Z,948.58
2023-01-13T09:12:56.610Z,948.53
2023-01-13T09:13:58.328Z,948.52
2023-01-13T09:15:01.215Z,948.55
2023-01-13T09:16:02.440Z,948.57
2023-01-13T09:17:04.373Z,948.58
2023-01-13T09:18:06.340Z,948.61
2023-01-13T09:19:08.368Z,948.58
2023-01-13T09:20:10.436Z,948.54
2023-01-13T09:21:12.333Z,948.54
2023-01-13T09:22:14.367Z,948.51
2023-01-13T09:23:16.335Z,948.54
2023-01-13T09:24:18.319Z,948.59
2023-01-13T09:25:20.343Z,948.55
2023-01-13T09:26:22.329Z,948.5
2023-01-13T09:27:24.378Z,948.48
2023-01-13T09:28:26.359Z,948.47
2023-01-13T09:29:28.351Z,948.5
2023-01-13T09:30:30.345Z,948.55
2023-01-13T09:31:33.363Z,948.62
2023-01-13T09:32:35.364Z,948.64
2023-01-13T09:33:37.344Z,948.54
2023-01-13T09:34:39.344Z,948.65
2023-01-13T09:35:41.350Z,948.65
2023-01-13T09:36:43.357Z,948.66
2023-01-13T09:37:45.335Z,948.65
2023-01-13T09:38:49.358Z,948.64
2023-01-13T09:39:52.341Z,948.65
2023-01-13T09:40:54.341Z,948.61
2023-01-13T09:41:56.356Z,948.64
2023-01-13T09:42:58.344Z,948.73
2023-01-13T09:44:01.214Z,948.67
2023-01-13T09:45:03.351Z,948.63
2023-01-13T09:46:05.356Z,948.71
2023-01-13T09:47:07.372Z,948.86
2023-01-13T09:48:09.337Z,948.95
2023-01-13T09:49:11.358Z,948.76
2023-01-13T09:50:13.401Z,948.97
2023-01-13T09:51:15.374Z,949.13
2023-01-13T09:52:17.372Z,949.07
2023-01-13T09:53:19.342Z,949.02
2023-01-13T09:54:21.363Z,949.03
2023-01-13T09:55:23.382Z,949.05
2023-01-13T09:56:25.366Z,948.97
2023-01-13T09:57:27.566Z,949.02
2023-01-13T09:58:29.345Z,948.95
2023-01-13T09:59:31.358Z,949.03
2023-01-13T10:00:46.253Z,949.07
2023-01-13T10:01:36.295Z,949.1
2023-01-13T10:02:38.296Z,949.01
2023-01-13T10:03:40.359Z,949.11
2023-01-13T10:04:42.325Z,949.14
2023-01-13T10:05:44.295Z,949.14
2023-01-13T10:06:46.300Z,949.2
2023-01-13T10:07:49.636Z,949.3
2023-01-13T10:08:52.272Z,949.19
2023-01-13T10:09:54.294Z,949.19
2023-01-13T10:10:56.268Z,949.31
2023-01-13T10:11:58.274Z,949.27
2023-01-13T10:13:01.160Z,949.26
2023-01-13T10:14:02.296Z,949.27
2023-01-13T10:15:05.313Z,949.26
2023-01-13T10:16:07.374Z,949.22
2023-01-13T10:17:09.278Z,949.27
2023-01-13T10:18:11.351Z,949.25
2023-01-13T10:19:13.301Z,949.28
2023-01-13T10:20:15.271Z,949.29
2023-01-13T10:21:17.320Z,949.26
2023-01-13T10:22:19.270Z,949.23
2023-01-13T10:23:21.275Z,949.24
2023-01-13T10:24:23.323Z,949.21
2023-01-13T10:25:25.298Z,949.27
2023-01-13T10:26:27.393Z,949.25
2023-01-13T10:27:29.284Z,949.19
2023-01-13T10:28:31.286Z,949.16
2023-01-13T10:29:33.306Z,949.18
2023-01-13T10:30:35.333Z,949.26
2023-01-13T10:31:37.366Z,949.25
2023-01-13T10:32:39.288Z,949.31
2023-01-13T10:33:41.280Z,949.3
2023-01-13T10:34:43.327Z,949.33
2023-01-13T10:35:45.278Z,949.31
2023-01-13T10:36:47.306Z,949.34
2023-01-13T10:37:49.305Z,949.33
2023-01-13T10:38:51.302Z,949.27
2023-01-13T10:39:53.305Z,949.3
2023-01-13T10:40:55.298Z,949.28
2023-01-13T10:41:57.305Z,949.32
2023-01-13T10:42:59.293Z,949.32
2023-01-13T10:44:01.458Z,949.28
2023-01-13T10:45:03.299Z,949.34
2023-01-13T10:46:05.398Z,949.35
2023-01-13T10:47:07.292Z,949.33
2023-01-13T10:48:09.307Z,949.3
2023-01-13T10:49:11.337Z,949.3
2023-01-13T10:50:14.343Z,949.33
2023-01-13T10:51:16.309Z,949.22
2023-01-13T10:52:18.401Z,949.27
2023-01-13T10:53:20.300Z,949.25
2023-01-13T10:54:22.308Z,949.27
2023-01-13T10:55:24.311Z,949.34
2023-01-13T10:56:26.305Z,949.27
2023-01-13T10:57:28.312Z,949.26
2023-01-13T10:58:30.311Z,949.23
2023-01-13T10:59:32.348Z,949.18
2023-01-13T11:00:34.328Z,949.1
2023-01-13T11:01:36.451Z,949.04
2023-01-13T11:02:38.349Z,948.95
2023-01-13T11:03:40.319Z,948.92
2023-01-13T11:04:42.338Z,948.72
2023-01-13T11:05:44.437Z,948.67
2023-01-13T11:06:49.440Z,948.66
2023-01-13T11:07:49.355Z,948.65
2023-01-13T11:10:37.937Z,948.64
2023-01-13T11:10:45.787Z,948.64
2023-01-13T11:11:45.771Z,948.73
2023-01-13T11:13:45.775Z,948.78
2023-01-13T11:14:45.792Z,948.82
2023-01-13T11:15:45.926Z,948.83
2023-01-13T11:16:52.888Z,948.91
2023-01-13T11:17:45.775Z,948.91
2023-01-13T11:18:45.779Z,948.88
2023-01-13T11:19:45.803Z,948.89
2023-01-13T11:20:45.804Z,948.92
2023-01-13T11:21:45.808Z,948.98
2023-01-13T11:22:45.787Z,948.99
2023-01-13T11:23:45.767Z,949.02
2023-01-13T11:24:45.807Z,949.03
2023-01-13T11:25:45.779Z,949.08
2023-01-13T11:26:45.813Z,949.06
2023-01-13T11:27:45.798Z,949.11
2023-01-13T11:28:45.785Z,949.11
2023-01-13T11:29:45.809Z,949.12
2023-01-13T11:30:45.794Z,949.18
2023-01-13T11:31:45.889Z,949.24
2023-01-13T11:32:45.784Z,949.2
2023-01-13T11:33:45.823Z,949.25
2023-01-13T11:34:45.782Z,949.28
2023-01-13T11:36:50.333Z,949.24
2023-01-13T11:37:52.364Z,949.25
2023-01-13T11:38:54.339Z,949.23
2023-01-13T11:39:56.373Z,949.34
2023-01-13T11:40:58.342Z,949.35
2023-01-13T11:42:00.335Z,949.34
2023-01-13T11:43:02.357Z,949.37
2023-01-13T11:44:04.346Z,949.37
2023-01-13T11:45:06.339Z,949.3
2023-01-13T11:46:08.782Z,949.3
2023-01-13T11:47:10.353Z,949.36
2023-01-13T11:48:12.381Z,949.31
2023-01-13T11:49:45.804Z,949.28
2023-01-13T11:50:45.794Z,949.21
2023-01-13T11:51:45.862Z,949.18
2023-01-13T11:52:45.807Z,949.14
2023-01-13T11:53:45.812Z,949.16
2023-01-13T11:54:45.809Z,949.16
2023-01-13T11:55:45.799Z,949.14
2023-01-13T11:56:45.799Z,949.05
2023-01-13T11:58:51.041Z,949.11
2023-01-13T11:59:45.829Z,949.16
2023-01-13T12:00:45.806Z,949.19
2023-01-13T12:01:45.885Z,949.15
2023-01-13T12:02:45.960Z,949.21
2023-01-13T12:03:45.835Z,949.2
2023-01-13T12:06:52.363Z,949.16
2023-01-13T12:07:54.368Z,949.13
2023-01-13T12:10:00.812Z,949.09
2023-01-13T12:12:03.391Z,949.12
2023-01-13T12:13:05.383Z,949.09
2023-01-13T12:14:07.360Z,949.08
2023-01-13T12:15:09.404Z,949.09
2023-01-13T12:16:11.502Z,949.09
2023-01-13T12:17:13.417Z,949.12
2023-01-13T12:18:15.431Z,949.13
2023-01-13T12:19:17.360Z,949.06
2023-01-13T12:20:19.806Z,949.06
2023-01-13T12:21:21.376Z,949.08
2023-01-13T12:22:23.367Z,949.16
2023-01-13T12:23:25.370Z,949.1
2023-01-13T12:24:27.374Z,949.18
2023-01-13T12:25:29.385Z,949.18
2023-01-13T12:26:31.374Z,949.17
2023-01-13T12:27:33.383Z,949.17
2023-01-13T12:28:35.407Z,949.22
2023-01-13T12:29:37.377Z,949.16
2023-01-13T12:30:39.419Z,949.12
2023-01-13T12:31:42.449Z,949.08
2023-01-13T12:32:44.408Z,949.1
2023-01-13T12:33:46.376Z,949.06
2023-01-13T12:34:49.410Z,949.01
2023-01-13T12:35:52.403Z,949.08
2023-01-13T12:36:54.377Z,949.05
2023-01-13T12:37:56.381Z,949.04
2023-01-13T12:38:58.366Z,949.01
2023-01-13T12:40:00.391Z,948.99
2023-01-13T12:41:02.443Z,948.97
2023-01-13T12:42:04.401Z,949.04
2023-01-13T12:43:06.382Z,949.02
2023-01-13T12:44:08.391Z,948.97
2023-01-13T12:45:10.388Z,949
2023-01-13T12:46:12.499Z,948.98
2023-01-13T12:47:14.368Z,948.96
2023-01-13T12:48:16.396Z,948.96
2023-01-13T12:49:18.384Z,948.96
2023-01-13T12:50:20.387Z,948.99
2023-01-13T12:51:22.432Z,948.91
2023-01-13T12:52:24.397Z,948.86
2023-01-13T12:53:26.395Z,948.9
2023-01-13T12:54:28.393Z,948.92
2023-01-13T12:55:30.388Z,948.93
2023-01-13T12:56:34.823Z,948.91
2023-01-13T12:57:34.396Z,948.95
2023-01-13T12:59:38.390Z,949.05
2023-01-13T13:00:40.393Z,949.11
2023-01-13T13:01:42.691Z,949.1
2023-01-13T13:02:44.472Z,949.05
2023-01-13T13:03:47.397Z,949.04
2023-01-13T13:04:49.469Z,949.04
2023-01-13T13:05:53.395Z,949.05
2023-01-13T13:06:56.418Z,949.03
2023-01-13T13:07:58.399Z,949
2023-01-13T13:09:03.323Z,949.04
2023-01-13T13:10:03.464Z,949.04
2023-01-13T13:12:07.446Z,949.02
2023-01-13T13:13:09.405Z,949.04
2023-01-13T13:14:11.401Z,948.99
2023-01-13T13:15:13.460Z,949
2023-01-13T13:16:15.504Z,949.02
2023-01-13T13:17:45.906Z,949